Barr, South Carolina
Current Conditions -  °F | °C
As of 3:18 PM on Sunday 23 Nov 2014 (Local Time) from KCAE Reporting Station
Light Rain Light Rain  
Wind Chill: 61°   Ceiling: 200
Heat Index: 61°   Visibility: 2mi
Dew Point: 59°   Wind: 9mph
Humidity: 93%   Direction: 270°W
Pressure: 29.89"   Gusts: NA
Location:  33.9903°N, 81.2681°W
Report Text: KCAE 232018Z 27008KT 2SM -RA BR BKN002 OVC008 16/15 A2989 RMK AO2 P0001 T01610150
Loading
Personal Weather Stations






























Interactive Weather Map New forecast layout! Learn more

10-Day Weather Forecast

Advertisements
Track Severe Weather on mobile